createdAt,value
2022-10-29T00:04:20.958Z,92.60
2022-10-29T00:09:17.218Z,81.38
2022-10-29T00:14:13.429Z,85.25
2022-10-29T00:19:09.611Z,83.13
2022-10-29T00:24:06.167Z,96.55
2022-10-29T00:29:02.378Z,92.25
2022-10-29T00:33:58.554Z,90.07
2022-10-29T00:38:55.289Z,95.47
2022-10-29T00:44:11.516Z,98.32
2022-10-29T00:49:07.825Z,97.35
2022-10-29T00:54:06.365Z,97.18
2022-10-29T00:59:02.812Z,110.85
2022-10-29T01:04:00.156Z,107.78
2022-10-29T01:08:56.415Z,111.25
2022-10-29T01:13:52.654Z,120.10
2022-10-29T01:18:55.183Z,117.50
2022-10-29T01:29:01.047Z,120.10
2022-10-29T01:34:04.204Z,118.93
2022-10-29T01:39:17.443Z,119.85
2022-10-29T01:44:26.250Z,118.63
2022-10-29T01:49:26.458Z,120.68
2022-10-29T01:54:22.877Z,119.43
2022-10-29T01:59:35.272Z,117.93
2022-10-29T02:04:41.301Z,125.60
2022-10-29T02:09:45.944Z,129.63
2022-10-29T02:14:50.385Z,124.03
2022-10-29T02:19:46.586Z,123.65
2022-10-29T02:24:42.775Z,126.72
2022-10-29T02:29:39.017Z,126.78
2022-10-29T02:34:35.230Z,123.22
2022-10-29T02:39:32.058Z,131.13
2022-10-29T02:44:28.240Z,126.45
2022-10-29T02:49:24.521Z,123.90
2022-10-29T02:54:20.737Z,126.03
2022-10-29T02:59:16.966Z,126.45
2022-10-29T03:04:13.156Z,126.32
2022-10-29T03:09:09.473Z,129.63
2022-10-29T03:14:05.677Z,129.27
2022-10-29T03:19:01.942Z,135.38
2022-10-29T03:23:58.121Z,129.13
2022-10-29T03:28:55.209Z,126.47
2022-10-29T03:33:51.476Z,124.43
2022-10-29T03:38:47.659Z,128.20
2022-10-29T03:43:43.861Z,125.63
2022-10-29T03:48:40.095Z,120.72
2022-10-29T03:53:37.008Z,129.57
2022-10-29T03:58:33.254Z,128.88
2022-10-29T04:03:30.370Z,129.38
2022-10-29T04:08:26.632Z,124.15
2022-10-29T04:13:22.859Z,111.30
2022-10-29T04:18:19.090Z,111.28
2022-10-29T04:24:12.267Z,102.38
2022-10-29T04:28:47.673Z,113.35
2022-10-29T04:33:44.014Z,111.18
2022-10-29T04:38:40.310Z,105.57
2022-10-29T04:43:36.485Z,106.35
2022-10-29T04:48:32.903Z,111.47
2022-10-29T04:53:29.293Z,115.88
2022-10-29T04:58:25.468Z,115.47
2022-10-29T05:03:21.713Z,120.40
2022-10-29T05:08:17.962Z,117.38
2022-10-29T05:13:14.149Z,119.90
2022-10-29T05:18:10.384Z,113.43
2022-10-29T05:23:07.490Z,115.70
2022-10-29T05:28:04.502Z,113.70
2022-10-29T05:33:00.718Z,111.78
2022-10-29T05:37:57.041Z,112.85
2022-10-29T05:42:53.344Z,109.75
2022-10-29T05:47:55.246Z,114.90
2022-10-29T05:52:58.421Z,116.65
2022-10-29T05:57:58.522Z,116.47
2022-10-29T06:02:55.402Z,109.47
2022-10-29T06:07:56.096Z,111.97
2022-10-29T06:12:52.954Z,112.53
2022-10-29T06:17:49.158Z,108.25
2022-10-29T06:22:45.445Z,108.97
2022-10-29T06:27:41.632Z,111.63
2022-10-29T06:32:37.875Z,104.85
2022-10-29T06:37:37.195Z,105.20
2022-10-29T06:42:33.413Z,104.22
2022-10-29T06:47:29.630Z,108.47
2022-10-29T06:52:25.943Z,107.65
2022-10-29T06:57:24.714Z,113.85
2022-10-29T07:02:21.513Z,112.43
2022-10-29T07:07:17.948Z,111.88
2022-10-29T07:12:14.360Z,112.25
2022-10-29T07:17:10.672Z,110.72
2022-10-29T07:22:06.861Z,112.88
2022-10-29T07:27:03.131Z,112.03
2022-10-29T07:31:59.589Z,107.57
2022-10-29T07:36:56.653Z,111.50
2022-10-29T07:41:55.270Z,109.57
2022-10-29T07:46:54.547Z,110.30
2022-10-29T07:51:50.830Z,109.32
2022-10-29T07:56:47.906Z,116.63
2022-10-29T08:01:44.867Z,111.00
2022-10-29T08:06:41.150Z,109.40
2022-10-29T08:11:37.892Z,102.20
2022-10-29T08:16:34.156Z,99.15
2022-10-29T08:21:30.481Z,96.97
2022-10-29T08:26:26.736Z,97.40
2022-10-29T08:31:22.998Z,96.70
2022-10-29T08:36:19.366Z,98.50
2022-10-29T08:41:15.561Z,100.47
2022-10-29T08:46:24.497Z,92.57
2022-10-29T08:51:36.223Z,91.25
2022-10-29T08:56:36.507Z,94.43
2022-10-29T09:01:32.961Z,93.78
2022-10-29T09:06:29.349Z,99.47
2022-10-29T09:11:36.778Z,100.65
2022-10-29T09:16:42.909Z,100.95
2022-10-29T09:21:59.008Z,103.43
2022-10-29T09:26:59.073Z,104.38
2022-10-29T09:31:57.802Z,109.00
2022-10-29T09:36:54.409Z,105.25
2022-10-29T09:41:51.902Z,100.63
2022-10-29T09:46:54.391Z,97.32
2022-10-29T09:56:51.682Z,69.13
2022-10-29T10:01:51.242Z,63.65
2022-10-29T10:07:06.479Z,66.63
2022-10-29T10:12:07.144Z,63.97
2022-10-29T10:17:03.389Z,65.95
2022-10-29T10:22:01.276Z,60.85
2022-10-29T10:26:57.460Z,65.20
2022-10-29T10:31:56.767Z,68.65
2022-10-29T10:37:13.436Z,66.20
2022-10-29T10:42:21.906Z,55.20
2022-10-29T10:47:20.058Z,56.03
2022-10-29T10:52:22.114Z,60.25
2022-10-29T10:57:19.711Z,64.55
2022-10-29T11:02:35.291Z,63.10
2022-10-29T11:07:34.185Z,64.88
2022-10-29T11:12:30.547Z,60.20
2022-10-29T11:17:39.378Z,62.78
2022-10-29T11:22:46.854Z,60.58
2022-10-29T11:27:43.048Z,56.25
2022-10-29T11:32:39.797Z,54.17
2022-10-29T11:37:40.168Z,50.38
2022-10-29T11:42:36.446Z,50.55
2022-10-29T11:47:51.659Z,47.88
2022-10-29T11:52:55.824Z,49.63
2022-10-29T11:58:00.952Z,53.08
2022-10-29T12:03:23.724Z,52.15
2022-10-29T12:08:29.086Z,52.67
2022-10-29T12:13:28.394Z,48.97
2022-10-29T12:18:28.318Z,46.45
2022-10-29T12:23:30.044Z,45.00
2022-10-29T12:28:33.973Z,44.23
2022-10-29T12:33:39.206Z,42.20
2022-10-29T12:38:40.811Z,39.00
2022-10-29T12:43:39.012Z,35.90
2022-10-29T12:48:39.609Z,33.08
2022-10-29T12:53:38.846Z,32.28
2022-10-29T12:58:57.005Z,31.10
2022-10-29T13:03:53.340Z,29.30
2022-10-29T13:08:56.699Z,30.90
2022-10-29T13:13:54.820Z,28.52
2022-10-29T13:18:56.835Z,27.23
2022-10-29T13:24:03.691Z,24.85
2022-10-29T13:28:59.907Z,24.08
2022-10-29T13:33:56.082Z,24.45
2022-10-29T13:39:05.645Z,25.30
2022-10-29T13:44:05.099Z,27.08
2022-10-29T13:49:04.951Z,31.05
2022-10-29T13:54:04.762Z,35.00
2022-10-29T13:59:02.239Z,38.58
2022-10-29T14:03:58.407Z,39.15
2022-10-29T14:09:06.089Z,44.25
2022-10-29T14:14:05.131Z,45.67
2022-10-29T14:19:14.814Z,45.22
2022-10-29T14:24:11.236Z,47.95
2022-10-29T14:29:23.496Z,47.67
2022-10-29T14:34:28.955Z,50.22
2022-10-29T14:39:48.381Z,52.17
2022-10-29T14:44:52.070Z,53.40
2022-10-29T14:49:49.109Z,52.33
2022-10-29T14:54:48.217Z,52.67
2022-10-29T14:59:50.675Z,53.67
2022-10-29T15:09:45.061Z,57.70
2022-10-29T15:14:49.774Z,62.63
2022-10-29T15:19:46.311Z,66.03
2022-10-29T15:24:45.395Z,67.40
2022-10-29T15:29:45.138Z,73.22
2022-10-29T15:34:46.563Z,75.07
2022-10-29T15:39:55.507Z,78.15
2022-10-29T15:45:21.244Z,79.13
2022-10-29T15:50:17.591Z,85.57
2022-10-29T15:55:27.330Z,88.43
2022-10-29T16:00:23.824Z,92.30
2022-10-29T16:05:20.225Z,92.15
2022-10-29T16:10:18.451Z,92.82
2022-10-29T16:15:16.033Z,93.53
2022-10-29T16:20:13.510Z,96.20
2022-10-29T16:25:21.201Z,96.20
2022-10-29T16:30:17.896Z,98.95
2022-10-29T16:35:16.235Z,98.60
2022-10-29T16:40:12.574Z,98.75
2022-10-29T16:45:12.681Z,98.68
2022-10-29T16:50:13.751Z,101.35
2022-10-29T16:55:10.490Z,107.05
2022-10-29T17:00:07.506Z,98.63
2022-10-29T17:05:03.803Z,102.78
2022-10-29T17:10:00.043Z,103.85
2022-10-29T17:14:56.268Z,102.20
2022-10-29T17:19:53.643Z,108.05
2022-10-29T17:24:49.859Z,109.50
2022-10-29T17:29:46.055Z,112.35
2022-10-29T17:34:42.277Z,107.80
2022-10-29T17:39:39.581Z,113.82
2022-10-29T17:44:36.151Z,110.10
2022-10-29T17:49:32.589Z,109.53
2022-10-29T17:54:28.837Z,111.07
2022-10-29T17:59:25.086Z,108.72
2022-10-29T18:04:21.268Z,112.57
2022-10-29T18:09:20.372Z,115.15
2022-10-29T18:14:17.889Z,118.38
2022-10-29T18:19:14.121Z,113.03
2022-10-29T18:24:10.564Z,114.82
2022-10-29T18:29:08.277Z,116.30
2022-10-29T18:34:06.229Z,117.75
2022-10-29T18:39:04.107Z,118.63
2022-10-29T18:44:00.543Z,115.93
2022-10-29T18:48:56.834Z,115.47
2022-10-29T18:53:53.836Z,116.85
2022-10-29T18:58:50.223Z,116.32
2022-10-29T19:03:53.522Z,120.43
2022-10-29T19:08:49.861Z,119.30
2022-10-29T19:13:52.154Z,118.80
2022-10-29T19:18:48.406Z,120.32
2022-10-29T19:23:46.216Z,119.32
2022-10-29T19:28:43.077Z,115.50
2022-10-29T19:33:40.096Z,109.18
2022-10-29T19:38:36.336Z,111.22
2022-10-29T19:43:32.719Z,116.43
2022-10-29T19:48:28.921Z,107.05
2022-10-29T19:53:26.030Z,110.68
2022-10-29T19:58:23.764Z,112.72
2022-10-29T20:03:20.413Z,110.90
2022-10-29T20:08:16.743Z,113.63
2022-10-29T20:13:13.012Z,112.38
2022-10-29T20:18:09.225Z,114.95
2022-10-29T20:23:05.574Z,113.03
2022-10-29T20:28:01.851Z,117.35
2022-10-29T20:32:58.408Z,117.85
2022-10-29T20:37:55.047Z,113.68
2022-10-29T20:42:51.494Z,111.60
2022-10-29T20:47:47.845Z,115.90
2022-10-29T20:52:48.279Z,115.63
2022-10-29T20:57:45.209Z,112.15
2022-10-29T21:02:41.508Z,111.82
2022-10-29T21:07:38.601Z,111.50
2022-10-29T21:12:34.794Z,109.07
2022-10-29T21:17:32.603Z,106.60
2022-10-29T21:22:28.859Z,109.78
2022-10-29T21:27:25.038Z,107.45
2022-10-29T21:32:21.246Z,111.75
2022-10-29T21:37:17.470Z,108.07
2022-10-29T21:42:13.725Z,111.53
2022-10-29T21:47:10.000Z,115.03
2022-10-29T21:52:06.227Z,115.18
2022-10-29T21:57:02.419Z,118.18
2022-10-29T22:01:59.448Z,114.43
2022-10-29T22:06:56.458Z,113.82
2022-10-29T22:11:52.675Z,115.93
2022-10-29T22:16:48.943Z,118.70
2022-10-29T22:21:46.162Z,116.38
2022-10-29T22:26:42.377Z,115.25
2022-10-29T22:31:38.651Z,114.80
2022-10-29T22:36:34.869Z,118.75
2022-10-29T22:41:31.111Z,117.55
2022-10-29T22:46:28.145Z,116.50
2022-10-29T22:51:25.653Z,115.10
2022-10-29T22:56:21.823Z,115.28
2022-10-29T23:01:19.783Z,110.80
2022-10-29T23:06:17.172Z,110.63
2022-10-29T23:11:19.066Z,115.07
2022-10-29T23:16:15.444Z,114.73
2022-10-29T23:21:11.622Z,109.97
2022-10-29T23:26:08.434Z,113.68
2022-10-29T23:31:05.630Z,115.82
2022-10-29T23:36:02.704Z,112.03
2022-10-29T23:40:58.972Z,112.38
2022-10-29T23:45:55.237Z,111.65
2022-10-29T23:50:51.981Z,113.35
2022-10-29T23:55:48.475Z,108.53
